Time;durP1;ratioP1;P1;durP2;ratioP2;P2;SDS_P1;SDS_P2;PMS_P1;PMS_P2;Temp;Humidity;BMP_temperature;BMP_pressure;BME280_temperature;BME280_humidity;BME280_pressure;Samples;Min_cycle;Max_cycle;Signal;HPM_P1;HPM_P2
2022/02/26 00:02:21;;;;;;;11.88;4.88;;;;;;;;;;5061391;28;20115;-56
2022/02/26 00:04:47;;;;;;;11.57;4.93;;;;;;;;;;5054154;28;20091;-56
2022/02/26 00:07:13;;;;;;;10.63;5.35;;;;;;;;;;5064138;28;20123;-57
2022/02/26 00:09:39;;;;;;;20.15;5.90;;;;;;;;;;5056084;28;20115;-57
2022/02/26 00:12:05;;;;;;;11.25;5.18;;;;;;;;;;5060565;28;20020;-55
2022/02/26 00:14:30;;;;;;;13.80;5.57;;;;;;;;;;5064831;28;20024;-57
2022/02/26 00:16:55;;;;;;;11.82;5.38;;;;;;;;;;5063742;28;20039;-57
2022/02/26 00:19:21;;;;;;;11.85;5.30;;;;;;;;;;5061201;28;20024;-56
2022/02/26 00:21:47;;;;;;;16.20;5.53;;;;;;;;;;5064111;28;20025;-57
2022/02/26 00:24:13;;;;;;;13.88;5.30;;;;;;;;;;5066706;28;20043;-55
2022/02/26 00:26:38;;;;;;;10.00;5.22;;;;;;;;;;5056625;28;20110;-56
2022/02/26 00:29:04;;;;;;;14.10;5.32;;;;;;;;;;5059352;28;20063;-56
2022/02/26 00:31:29;;;;;;;15.57;5.60;;;;;;;;;;5055652;28;20032;-56
2022/02/26 00:33:55;;;;;;;12.68;5.47;;;;;;;;;;5053464;28;20028;-56
2022/02/26 00:36:20;;;;;;;11.35;5.40;;;;;;;;;;5059328;28;20032;-57
2022/02/26 00:38:46;;;;;;;10.27;4.70;;;;;;;;;;5060113;28;20130;-57
2022/02/26 00:41:11;;;;;;;14.38;5.53;;;;;;;;;;5059408;28;20021;-56
2022/02/26 00:43:37;;;;;;;12.40;5.05;;;;;;;;;;5058384;28;20037;-58
2022/02/26 00:46:03;;;;;;;9.43;5.18;;;;;;;;;;5058965;28;20318;-54
2022/02/26 00:51:12;;;;;;;17.02;5.65;;;;;;;;;;5060726;28;20403;-56
2022/02/26 00:53:38;;;;;;;12.52;5.78;;;;;;;;;;5061507;28;20017;-54
2022/02/26 00:56:04;;;;;;;10.23;5.30;;;;;;;;;;5065569;28;20491;-57
2022/02/26 00:58:29;;;;;;;14.43;5.82;;;;;;;;;;5064216;28;20028;-56
2022/02/26 01:00:55;;;;;;;12.40;5.45;;;;;;;;;;5058026;28;20088;-55
2022/02/26 01:03:20;;;;;;;16.55;6.10;;;;;;;;;;5064882;28;20040;-57
2022/02/26 01:05:45;;;;;;;12.90;5.82;;;;;;;;;;5058649;28;20100;-57
2022/02/26 01:08:11;;;;;;;12.25;5.85;;;;;;;;;;5052895;28;20032;-56
2022/02/26 01:10:37;;;;;;;17.90;5.70;;;;;;;;;;5062972;28;20323;-56
2022/02/26 01:13:02;;;;;;;14.90;6.35;;;;;;;;;;5061318;28;20036;-56
2022/02/26 01:15:28;;;;;;;10.65;5.18;;;;;;;;;;5060484;28;20055;-56
2022/02/26 01:17:53;;;;;;;13.82;5.38;;;;;;;;;;5069214;28;20020;-56
2022/02/26 01:20:19;;;;;;;13.68;6.13;;;;;;;;;;5069855;28;20379;-55
2022/02/26 01:22:44;;;;;;;11.63;5.68;;;;;;;;;;5067967;28;20034;-57
2022/02/26 01:25:09;;;;;;;15.32;5.80;;;;;;;;;;5058362;28;20029;-57
2022/02/26 01:27:39;;;;;;;16.58;6.43;;;;;;;;;;5068859;28;20043;-54
2022/02/26 01:30:08;;;;;;;11.77;6.00;;;;;;;;;;5063793;28;20045;-58
2022/02/26 01:32:35;;;;;;;13.90;5.63;;;;;;;;;;5064382;28;20032;-58
2022/02/26 01:35:01;;;;;;;9.95;5.88;;;;;;;;;;5062174;28;20043;-58
2022/02/26 01:37:26;;;;;;;13.45;6.28;;;;;;;;;;5054901;28;20024;-56
2022/02/26 01:39:51;;;;;;;10.63;5.68;;;;;;;;;;5060476;28;20021;-55
2022/02/26 01:42:20;;;;;;;10.52;5.75;;;;;;;;;;5062634;28;20065;-59
2022/02/26 01:44:50;;;;;;;16.67;6.50;;;;;;;;;;5065373;28;20104;-57
2022/02/26 01:47:16;;;;;;;14.43;6.43;;;;;;;;;;5059357;28;20032;-57
2022/02/26 01:49:42;;;;;;;14.48;5.97;;;;;;;;;;5058356;28;20033;-57
2022/02/26 01:52:08;;;;;;;16.48;5.70;;;;;;;;;;5061066;28;20052;-56
2022/02/26 01:54:35;;;;;;;10.80;5.93;;;;;;;;;;5066609;28;20025;-57
2022/02/26 01:57:01;;;;;;;16.95;6.25;;;;;;;;;;5061767;28;20124;-58
2022/02/26 01:59:27;;;;;;;16.17;6.68;;;;;;;;;;5062517;28;20060;-55
2022/02/26 02:01:52;;;;;;;18.50;7.07;;;;;;;;;;5061995;28;20071;-57
2022/02/26 02:04:18;;;;;;;20.23;6.65;;;;;;;;;;5063017;28;20052;-56
2022/02/26 02:06:44;;;;;;;13.68;5.30;;;;;;;;;;5063904;28;20527;-58
2022/02/26 02:09:10;;;;;;;18.70;6.18;;;;;;;;;;5059462;28;20028;-58
2022/02/26 02:11:36;;;;;;;12.65;6.18;;;;;;;;;;5063531;28;20132;-57
2022/02/26 02:14:02;;;;;;;15.65;6.38;;;;;;;;;;5059812;28;20119;-56
2022/02/26 02:16:28;;;;;;;17.40;6.47;;;;;;;;;;5061403;28;20032;-57
2022/02/26 02:18:53;;;;;;;16.98;6.35;;;;;;;;;;5062679;28;20029;-58
2022/02/26 02:21:20;;;;;;;13.98;5.72;;;;;;;;;;5062801;28;20388;-53
2022/02/26 02:23:45;;;;;;;16.73;5.90;;;;;;;;;;5060306;28;20025;-57
2022/02/26 02:26:11;;;;;;;17.20;6.20;;;;;;;;;;5060279;28;20498;-57
2022/02/26 02:28:38;;;;;;;13.07;6.10;;;;;;;;;;5063550;28;20028;-55
2022/02/26 02:31:04;;;;;;;14.63;6.75;;;;;;;;;;5056554;28;20121;-56
2022/02/26 02:33:45;;;;;;;18.02;6.85;;;;;;;;;;5062956;28;20056;-58
2022/02/26 02:36:10;;;;;;;20.35;6.90;;;;;;;;;;5059806;28;20144;-56
2022/02/26 02:38:36;;;;;;;20.98;6.47;;;;;;;;;;5058333;28;20129;-56
2022/02/26 02:41:02;;;;;;;22.60;7.10;;;;;;;;;;5061684;28;20155;-57
2022/02/26 02:43:27;;;;;;;16.20;6.10;;;;;;;;;;5060719;28;20380;-55
2022/02/26 02:45:52;;;;;;;12.43;5.40;;;;;;;;;;5068326;28;20035;-57
2022/02/26 02:48:18;;;;;;;10.85;4.97;;;;;;;;;;5064279;28;20032;-55
2022/02/26 02:50:43;;;;;;;15.10;5.75;;;;;;;;;;5062440;28;20460;-57
2022/02/26 02:53:09;;;;;;;14.65;6.18;;;;;;;;;;5059818;28;20060;-55
2022/02/26 02:55:34;;;;;;;14.27;5.85;;;;;;;;;;5062763;28;20109;-57
2022/02/26 02:58:01;;;;;;;16.27;5.63;;;;;;;;;;5068105;28;20403;-56
2022/02/26 03:00:28;;;;;;;18.10;5.90;;;;;;;;;;5065089;28;20025;-57
2022/02/26 03:02:54;;;;;;;16.65;5.03;;;;;;;;;;5056060;28;20063;-56
2022/02/26 03:05:21;;;;;;;15.85;6.30;;;;;;;;;;5062278;28;20111;-56
2022/02/26 03:07:48;;;;;;;11.38;5.03;;;;;;;;;;5059563;28;20024;-57
2022/02/26 03:10:13;;;;;;;14.52;5.38;;;;;;;;;;5060731;28;20470;-57
2022/02/26 03:12:39;;;;;;;9.77;5.20;;;;;;;;;;5057485;28;20032;-56
2022/02/26 03:15:06;;;;;;;14.10;5.00;;;;;;;;;;5067681;28;20020;-55
2022/02/26 03:17:31;;;;;;;11.63;5.57;;;;;;;;;;5066868;28;20028;-55
2022/02/26 03:19:57;;;;;;;21.85;5.82;;;;;;;;;;5060240;28;20028;-57
2022/02/26 03:22:23;;;;;;;13.65;5.20;;;;;;;;;;5063622;28;20033;-57
2022/02/26 03:24:48;;;;;;;16.35;5.68;;;;;;;;;;5062788;28;20025;-55
2022/02/26 03:27:14;;;;;;;10.68;5.10;;;;;;;;;;5057977;28;20549;-57
2022/02/26 03:29:40;;;;;;;13.05;5.72;;;;;;;;;;5057381;28;20492;-56
2022/02/26 03:32:07;;;;;;;9.77;5.32;;;;;;;;;;5053003;28;20440;-55
2022/02/26 03:34:33;;;;;;;14.77;6.30;;;;;;;;;;5056846;28;20033;-55
2022/02/26 03:36:58;;;;;;;21.42;6.30;;;;;;;;;;5052600;28;20029;-56
2022/02/26 03:39:25;;;;;;;14.55;6.10;;;;;;;;;;5054853;28;20023;-57
2022/02/26 03:41:51;;;;;;;13.70;5.95;;;;;;;;;;5054839;28;20020;-56
2022/02/26 03:44:17;;;;;;;16.98;5.60;;;;;;;;;;5063089;28;20785;-55
2022/02/26 03:46:42;;;;;;;14.50;6.60;;;;;;;;;;5067980;28;20033;-56
2022/02/26 03:49:08;;;;;;;18.75;5.93;;;;;;;;;;5061010;28;20025;-54
2022/02/26 03:51:34;;;;;;;12.65;6.07;;;;;;;;;;5064533;28;20032;-57
2022/02/26 03:54:01;;;;;;;14.52;6.32;;;;;;;;;;5060121;28;20036;-56
2022/02/26 03:56:27;;;;;;;12.88;5.65;;;;;;;;;;5067339;28;20020;-56
2022/02/26 03:58:54;;;;;;;13.88;5.53;;;;;;;;;;5064466;28;20430;-57
2022/02/26 04:01:20;;;;;;;18.80;6.13;;;;;;;;;;5059877;28;20080;-54
2022/02/26 04:03:45;;;;;;;14.50;5.30;;;;;;;;;;5057734;28;20032;-57
2022/02/26 04:06:12;;;;;;;12.30;5.60;;;;;;;;;;5065771;28;20040;-58
2022/02/26 04:08:37;;;;;;;14.75;5.88;;;;;;;;;;5058370;28;20430;-57
2022/02/26 04:11:03;;;;;;;21.25;6.68;;;;;;;;;;5065998;28;20023;-56
2022/02/26 04:13:28;;;;;;;15.52;6.50;;;;;;;;;;5065411;28;20040;-54
2022/02/26 04:15:54;;;;;;;15.75;6.07;;;;;;;;;;5057474;28;20518;-54
2022/02/26 04:18:19;;;;;;;14.63;6.47;;;;;;;;;;5067216;28;20028;-56
2022/02/26 04:20:45;;;;;;;21.00;7.13;;;;;;;;;;5058274;28;20036;-56
2022/02/26 04:23:10;;;;;;;22.10;7.65;;;;;;;;;;5063010;28;20364;-56
2022/02/26 04:25:36;;;;;;;18.83;7.28;;;;;;;;;;5057713;28;20029;-57
2022/02/26 04:28:03;;;;;;;19.50;7.18;;;;;;;;;;5057110;28;20428;-57
2022/02/26 04:30:28;;;;;;;20.65;7.97;;;;;;;;;;5057152;28;20039;-55
2022/02/26 04:32:54;;;;;;;27.02;8.43;;;;;;;;;;5053346;28;20033;-57
2022/02/26 04:35:19;;;;;;;18.38;6.63;;;;;;;;;;5055659;28;20447;-57
2022/02/26 04:37:45;;;;;;;21.30;7.28;;;;;;;;;;5055155;28;20032;-56
2022/02/26 04:40:11;;;;;;;17.45;7.10;;;;;;;;;;5052669;28;20025;-56
2022/02/26 04:42:37;;;;;;;16.38;7.80;;;;;;;;;;5057229;28;20314;-57
2022/02/26 04:45:05;;;;;;;17.70;7.15;;;;;;;;;;5053556;28;20021;-56
2022/02/26 04:47:30;;;;;;;17.55;7.95;;;;;;;;;;5052742;28;20033;-56
2022/02/26 04:49:56;;;;;;;26.77;7.68;;;;;;;;;;5061321;28;20017;-57
2022/02/26 04:52:21;;;;;;;19.40;8.52;;;;;;;;;;5058784;28;20111;-56
2022/02/26 04:54:46;;;;;;;18.40;8.02;;;;;;;;;;5063542;28;20583;-56
2022/02/26 04:57:12;;;;;;;18.25;6.90;;;;;;;;;;5059372;28;20047;-57
2022/02/26 04:59:37;;;;;;;20.52;8.80;;;;;;;;;;5067748;28;20032;-54
2022/02/26 05:02:03;;;;;;;26.02;8.93;;;;;;;;;;5067896;28;20035;-56
2022/02/26 05:04:28;;;;;;;28.85;9.15;;;;;;;;;;5062785;28;20037;-56
2022/02/26 05:06:54;;;;;;;29.02;8.93;;;;;;;;;;5061886;28;20029;-57
2022/02/26 05:09:19;;;;;;;27.05;8.57;;;;;;;;;;5059891;28;20479;-57
2022/02/26 05:11:45;;;;;;;22.58;8.45;;;;;;;;;;5064190;28;20031;-55
2022/02/26 05:14:12;;;;;;;23.60;8.07;;;;;;;;;;5069920;28;20071;-55
2022/02/26 05:16:37;;;;;;;22.63;8.88;;;;;;;;;;5064267;28;20040;-57
2022/02/26 05:19:02;;;;;;;20.95;9.63;;;;;;;;;;5068307;28;20028;-57
2022/02/26 05:21:28;;;;;;;24.35;9.13;;;;;;;;;;5062519;28;20031;-54
2022/02/26 05:23:53;;;;;;;27.33;8.98;;;;;;;;;;5055280;28;20027;-57
2022/02/26 05:26:19;;;;;;;25.60;9.02;;;;;;;;;;5064463;28;20041;-56
2022/02/26 05:28:44;;;;;;;20.70;8.75;;;;;;;;;;5059980;28;20035;-53
2022/02/26 05:31:10;;;;;;;28.77;9.48;;;;;;;;;;5060952;28;20065;-57
2022/02/26 05:33:38;;;;;;;21.40;8.68;;;;;;;;;;5063008;28;20051;-54
2022/02/26 05:36:04;;;;;;;21.23;8.40;;;;;;;;;;5070345;28;20036;-56
2022/02/26 05:38:30;;;;;;;25.85;9.15;;;;;;;;;;5052219;28;20326;-56
2022/02/26 05:40:55;;;;;;;27.48;10.45;;;;;;;;;;5060212;28;20029;-57
2022/02/26 05:43:21;;;;;;;28.10;9.80;;;;;;;;;;5054368;28;20117;-54
2022/02/26 05:45:47;;;;;;;22.40;9.02;;;;;;;;;;5061189;28;20468;-55
2022/02/26 05:48:12;;;;;;;25.67;9.50;;;;;;;;;;5059125;28;20029;-56
2022/02/26 05:50:38;;;;;;;18.00;8.50;;;;;;;;;;5062607;28;20132;-56
2022/02/26 05:53:03;;;;;;;20.27;9.00;;;;;;;;;;5059233;28;20028;-56
2022/02/26 05:55:29;;;;;;;23.95;9.20;;;;;;;;;;5057060;28;20037;-56
2022/02/26 05:57:55;;;;;;;20.50;8.57;;;;;;;;;;5054155;28;20349;-55
2022/02/26 06:00:20;;;;;;;26.65;9.20;;;;;;;;;;5063746;28;20020;-56
2022/02/26 06:02:46;;;;;;;25.08;10.05;;;;;;;;;;5059682;28;20024;-55
2022/02/26 06:05:11;;;;;;;19.98;9.23;;;;;;;;;;5068035;28;20032;-55
2022/02/26 06:07:37;;;;;;;23.92;9.82;;;;;;;;;;5058695;28;20032;-56
2022/02/26 06:10:04;;;;;;;25.33;10.48;;;;;;;;;;5059574;28;20380;-57
2022/02/26 06:12:29;;;;;;;31.23;11.77;;;;;;;;;;5068832;28;20052;-57
2022/02/26 06:14:55;;;;;;;32.13;10.60;;;;;;;;;;5065218;28;20242;-56
2022/02/26 06:17:21;;;;;;;29.80;11.70;;;;;;;;;;5062379;28;20036;-57
2022/02/26 06:19:46;;;;;;;22.02;9.32;;;;;;;;;;5053945;28;20021;-58
2022/02/26 06:22:12;;;;;;;22.52;8.73;;;;;;;;;;5057493;28;20066;-57
2022/02/26 06:24:37;;;;;;;23.13;9.20;;;;;;;;;;5068428;28;20442;-57
2022/02/26 06:27:03;;;;;;;20.90;9.00;;;;;;;;;;5055264;28;20422;-56
2022/02/26 06:29:29;;;;;;;27.83;9.10;;;;;;;;;;5059421;28;20037;-56
2022/02/26 06:31:54;;;;;;;25.33;9.10;;;;;;;;;;5053450;28;20075;-56
2022/02/26 06:34:21;;;;;;;28.25;10.23;;;;;;;;;;5060416;28;20047;-58
2022/02/26 06:36:46;;;;;;;25.20;10.30;;;;;;;;;;5054200;28;20021;-56
2022/02/26 06:39:12;;;;;;;30.73;10.63;;;;;;;;;;5057401;28;20017;-57
2022/02/26 06:41:37;;;;;;;22.33;9.43;;;;;;;;;;5059763;28;20484;-55
2022/02/26 06:44:03;;;;;;;22.25;9.85;;;;;;;;;;5054603;28;20028;-56
2022/02/26 06:46:29;;;;;;;28.08;9.80;;;;;;;;;;5062360;28;20479;-58
2022/02/26 06:48:54;;;;;;;27.08;10.63;;;;;;;;;;5054983;28;20463;-56
2022/02/26 06:51:20;;;;;;;27.05;10.25;;;;;;;;;;5060813;28;20070;-56
2022/02/26 06:53:45;;;;;;;30.70;10.52;;;;;;;;;;5053138;28;20495;-56
2022/02/26 06:56:11;;;;;;;25.63;9.70;;;;;;;;;;5060765;28;20502;-57
2022/02/26 06:58:38;;;;;;;39.30;12.68;;;;;;;;;;5055313;28;20028;-56
2022/02/26 07:01:04;;;;;;;25.60;10.63;;;;;;;;;;5060975;28;20165;-57
2022/02/26 07:03:30;;;;;;;25.80;10.25;;;;;;;;;;5056988;28;20036;-57
2022/02/26 07:05:55;;;;;;;27.40;9.43;;;;;;;;;;5058583;28;20347;-55
2022/02/26 07:08:21;;;;;;;32.25;9.27;;;;;;;;;;5057563;28;20025;-56
2022/02/26 07:10:46;;;;;;;26.90;9.55;;;;;;;;;;5057311;28;20032;-56
2022/02/26 07:13:12;;;;;;;26.45;9.02;;;;;;;;;;5062440;28;20066;-56
2022/02/26 07:15:38;;;;;;;22.73;9.32;;;;;;;;;;5064390;28;20352;-56
2022/02/26 07:18:03;;;;;;;30.52;9.95;;;;;;;;;;5061018;28;20403;-57
2022/02/26 07:20:29;;;;;;;21.77;8.93;;;;;;;;;;5056392;28;20024;-52
2022/02/26 07:22:54;;;;;;;16.55;5.78;;;;;;;;;;5059139;28;20029;-53
2022/02/26 07:25:19;;;;;;;15.88;7.28;;;;;;;;;;5061393;28;20028;-53
2022/02/26 07:27:45;;;;;;;21.23;7.75;;;;;;;;;;5064314;28;20457;-52
2022/02/26 07:30:11;;;;;;;28.45;7.63;;;;;;;;;;5056249;28;20115;-55
2022/02/26 07:32:37;;;;;;;35.22;10.27;;;;;;;;;;5064110;28;20328;-57
2022/02/26 07:35:04;;;;;;;31.35;10.52;;;;;;;;;;5059840;28;20040;-56
2022/02/26 07:37:30;;;;;;;35.38;11.82;;;;;;;;;;5059744;28;20028;-56
2022/02/26 07:39:55;;;;;;;25.92;9.90;;;;;;;;;;5055605;28;20108;-57
2022/02/26 07:42:21;;;;;;;35.17;12.32;;;;;;;;;;5060841;28;20139;-57
2022/02/26 07:44:47;;;;;;;27.73;10.70;;;;;;;;;;5056630;28;20025;-56
2022/02/26 07:47:12;;;;;;;36.47;12.00;;;;;;;;;;5063235;28;20399;-56
2022/02/26 07:49:37;;;;;;;42.80;14.43;;;;;;;;;;5057968;28;20029;-57
2022/02/26 07:52:03;;;;;;;45.20;14.40;;;;;;;;;;5060274;28;20438;-56
2022/02/26 07:54:29;;;;;;;30.90;10.95;;;;;;;;;;5060978;28;20028;-56
2022/02/26 07:56:54;;;;;;;23.02;9.82;;;;;;;;;;5057758;28;20032;-57
2022/02/26 07:59:19;;;;;;;30.20;11.57;;;;;;;;;;5058789;28;20283;-56
2022/02/26 08:01:45;;;;;;;24.77;10.93;;;;;;;;;;5056804;28;20033;-56
2022/02/26 08:04:11;;;;;;;40.10;12.02;;;;;;;;;;5056529;28;20040;-57
2022/02/26 08:06:36;;;;;;;39.50;13.30;;;;;;;;;;5054596;28;20032;-59
2022/02/26 08:09:03;;;;;;;33.25;11.32;;;;;;;;;;5059576;28;20036;-58
2022/02/26 08:11:31;;;;;;;28.35;9.20;;;;;;;;;;5057920;28;20518;-62
2022/02/26 08:13:59;;;;;;;27.17;9.25;;;;;;;;;;5063171;28;20081;-55
2022/02/26 08:16:25;;;;;;;32.83;10.63;;;;;;;;;;5054045;28;20135;-57
2022/02/26 08:18:52;;;;;;;41.78;13.68;;;;;;;;;;5063651;28;20115;-56
2022/02/26 08:21:20;;;;;;;45.30;15.68;;;;;;;;;;5057458;28;20035;-57
2022/02/26 08:23:46;;;;;;;58.17;19.33;;;;;;;;;;5056539;28;20085;-56
2022/02/26 08:26:12;;;;;;;62.22;17.48;;;;;;;;;;5063406;28;20024;-57
2022/02/26 08:28:37;;;;;;;32.38;11.20;;;;;;;;;;5054026;28;20501;-59
2022/02/26 08:31:03;;;;;;;27.80;10.77;;;;;;;;;;5059922;28;20025;-57
2022/02/26 08:33:28;;;;;;;27.92;11.15;;;;;;;;;;5056680;28;20051;-57
2022/02/26 08:35:54;;;;;;;22.77;9.65;;;;;;;;;;5055155;28;20031;-58
2022/02/26 08:38:19;;;;;;;28.10;10.68;;;;;;;;;;5055181;28;20079;-57
2022/02/26 08:40:44;;;;;;;48.13;15.00;;;;;;;;;;5053521;28;20020;-56
2022/02/26 08:43:10;;;;;;;51.30;17.85;;;;;;;;;;5065444;28;20081;-57
2022/02/26 08:45:35;;;;;;;56.28;22.25;;;;;;;;;;5057078;28;20020;-57
2022/02/26 08:48:01;;;;;;;65.28;27.65;;;;;;;;;;5059496;28;20040;-58
2022/02/26 08:50:26;;;;;;;85.65;35.40;;;;;;;;;;5052442;28;20476;-57
2022/02/26 08:52:52;;;;;;;58.00;26.95;;;;;;;;;;5061512;28;20033;-58
2022/02/26 08:55:17;;;;;;;46.25;22.55;;;;;;;;;;5053855;28;20119;-58
2022/02/26 08:57:43;;;;;;;26.40;12.30;;;;;;;;;;5061116;28;20039;-57
2022/02/26 09:00:11;;;;;;;28.42;10.85;;;;;;;;;;5059201;28;20035;-57
2022/02/26 09:02:37;;;;;;;22.55;9.65;;;;;;;;;;5063507;28;20377;-58
2022/02/26 09:05:03;;;;;;;53.08;20.35;;;;;;;;;;5050894;28;20488;-56
2022/02/26 09:07:28;;;;;;;37.30;15.60;;;;;;;;;;5059128;28;20046;-57
2022/02/26 09:09:54;;;;;;;128.27;42.67;;;;;;;;;;5051616;28;20025;-57
2022/02/26 09:12:19;;;;;;;96.20;34.58;;;;;;;;;;5063573;28;20047;-57
2022/02/26 09:14:45;;;;;;;78.47;28.80;;;;;;;;;;5062588;28;20395;-56
2022/02/26 09:17:11;;;;;;;53.38;23.77;;;;;;;;;;5063232;28;20056;-57
2022/02/26 09:19:37;;;;;;;41.55;15.45;;;;;;;;;;5066009;28;20071;-58
2022/02/26 09:22:04;;;;;;;74.75;24.00;;;;;;;;;;5063025;28;20488;-57
2022/02/26 09:24:33;;;;;;;160.23;43.75;;;;;;;;;;5051578;28;20120;-58
2022/02/26 09:26:59;;;;;;;51.05;16.98;;;;;;;;;;5057465;28;20025;-58
2022/02/26 09:29:25;;;;;;;48.13;15.20;;;;;;;;;;5049704;28;20032;-57
2022/02/26 09:31:51;;;;;;;32.65;11.15;;;;;;;;;;5050913;28;20025;-58
2022/02/26 09:34:18;;;;;;;24.08;8.35;;;;;;;;;;5056963;28;20115;-58
2022/02/26 09:36:45;;;;;;;11.82;5.28;;;;;;;;;;5059984;28;20044;-58
2022/02/26 09:39:10;;;;;;;16.02;6.15;;;;;;;;;;5060206;28;20033;-58
2022/02/26 09:41:37;;;;;;;15.52;5.68;;;;;;;;;;5053957;28;20450;-58
2022/02/26 09:44:04;;;;;;;14.43;5.63;;;;;;;;;;5054686;28;20029;-57
2022/02/26 09:46:29;;;;;;;15.75;6.47;;;;;;;;;;5063937;28;20028;-59
2022/02/26 09:48:55;;;;;;;19.10;6.88;;;;;;;;;;5067409;28;20103;-59
2022/02/26 09:51:21;;;;;;;16.80;5.80;;;;;;;;;;5055518;28;20453;-58
2022/02/26 09:53:47;;;;;;;16.10;7.15;;;;;;;;;;5065282;28;20395;-58
2022/02/26 09:56:12;;;;;;;16.73;6.60;;;;;;;;;;5066534;28;20027;-59
2022/02/26 09:58:39;;;;;;;15.63;6.78;;;;;;;;;;5061205;28;20082;-58
2022/02/26 10:01:04;;;;;;;11.75;6.00;;;;;;;;;;5065169;28;20472;-57
2022/02/26 10:03:35;;;;;;;12.70;5.05;;;;;;;;;;5062231;28;20032;-57
2022/02/26 10:06:12;;;;;;;15.65;6.07;;;;;;;;;;5051814;28;20120;-58
2022/02/26 10:08:43;;;;;;;13.05;4.95;;;;;;;;;;5058885;28;20025;-58
2022/02/26 10:11:30;;;;;;;18.95;5.00;;;;;;;;;;5055926;28;20021;-60
2022/02/26 10:14:13;;;;;;;22.35;4.70;;;;;;;;;;5055776;28;20057;-61
2022/02/26 10:16:41;;;;;;;11.80;3.90;;;;;;;;;;5055416;28;20028;-61
2022/02/26 10:19:07;;;;;;;13.68;4.45;;;;;;;;;;5055651;28;20550;-62
2022/02/26 10:21:32;;;;;;;15.85;3.60;;;;;;;;;;5056573;28;20025;-63
2022/02/26 10:23:58;;;;;;;16.58;3.85;;;;;;;;;;5059777;28;20033;-57
2022/02/26 10:26:28;;;;;;;19.60;6.35;;;;;;;;;;5061054;28;20044;-58
2022/02/26 10:29:10;;;;;;;15.15;4.47;;;;;;;;;;5062932;28;20542;-57
2022/02/26 10:31:54;;;;;;;10.85;4.07;;;;;;;;;;5056101;28;20107;-58
2022/02/26 10:34:24;;;;;;;12.60;4.00;;;;;;;;;;5054928;28;20037;-58
2022/02/26 10:37:02;;;;;;;23.80;6.95;;;;;;;;;;5054960;28;20025;-56
2022/02/26 10:39:32;;;;;;;15.18;4.72;;;;;;;;;;5048107;28;20021;-56
2022/02/26 10:41:57;;;;;;;;;;;;;;;;;;5058420;28;20606;-57
2022/02/26 10:44:23;;;;;;;28.23;7.60;;;;;;;;;;5056473;28;20023;-57
2022/02/26 10:46:49;;;;;;;19.10;4.47;;;;;;;;;;5055031;28;20051;-56
2022/02/26 10:49:16;;;;;;;20.15;3.58;;;;;;;;;;5052911;28;20056;-55
2022/02/26 10:51:45;;;;;;;17.92;3.90;;;;;;;;;;5054445;28;20028;-58
2022/02/26 10:54:17;;;;;;;24.30;5.53;;;;;;;;;;5060056;28;20028;-58
2022/02/26 10:56:44;;;;;;;17.67;5.07;;;;;;;;;;5059718;28;20041;-57
2022/02/26 10:59:11;;;;;;;28.35;5.97;;;;;;;;;;5063817;28;20025;-58
2022/02/26 11:01:37;;;;;;;13.98;3.10;;;;;;;;;;5056379;28;20036;-58
2022/02/26 11:04:03;;;;;;;9.10;2.72;;;;;;;;;;5055465;28;20021;-57
2022/02/26 11:06:31;;;;;;;15.82;2.90;;;;;;;;;;5055762;28;20040;-59
2022/02/26 11:08:57;;;;;;;12.98;3.47;;;;;;;;;;5057912;28;20398;-57
2022/02/26 11:11:23;;;;;;;41.17;9.95;;;;;;;;;;5065563;28;20030;-57
2022/02/26 11:13:53;;;;;;;20.58;5.45;;;;;;;;;;5064990;28;20033;-57
2022/02/26 11:16:21;;;;;;;23.40;6.25;;;;;;;;;;5058661;28;20031;-56
2022/02/26 11:18:49;;;;;;;14.48;4.25;;;;;;;;;;5059584;28;20060;-58
2022/02/26 11:21:16;;;;;;;33.05;6.50;;;;;;;;;;5058619;28;20475;-57
2022/02/26 11:23:43;;;;;;;16.13;4.15;;;;;;;;;;5059375;28;20116;-56
2022/02/26 11:26:10;;;;;;;28.33;5.65;;;;;;;;;;5059060;28;20028;-59
2022/02/26 11:28:38;;;;;;;12.45;3.15;;;;;;;;;;5062857;28;20021;-58
2022/02/26 11:31:08;;;;;;;21.58;5.38;;;;;;;;;;5056146;28;20021;-56
2022/02/26 11:33:36;;;;;;;19.23;4.95;;;;;;;;;;5062221;28;20032;-57
2022/02/26 11:36:04;;;;;;;17.25;3.72;;;;;;;;;;5059278;28;20028;-59
2022/02/26 11:38:34;;;;;;;8.60;2.92;;;;;;;;;;5059703;28;20036;-58
2022/02/26 11:41:26;;;;;;;22.25;4.35;;;;;;;;;;5066132;28;20024;-57
2022/02/26 11:44:00;;;;;;;13.57;3.60;;;;;;;;;;5059542;28;20036;-58
2022/02/26 11:46:34;;;;;;;20.20;4.38;;;;;;;;;;5063103;28;20021;-58
2022/02/26 11:49:25;;;;;;;9.20;2.42;;;;;;;;;;5058744;28;20332;-58
2022/02/26 11:51:50;;;;;;;8.10;2.67;;;;;;;;;;5054966;28;20032;-58
2022/02/26 11:54:17;;;;;;;5.70;2.30;;;;;;;;;;5059995;28;20108;-57
2022/02/26 11:56:45;;;;;;;8.00;2.20;;;;;;;;;;5054154;28;20560;-57
2022/02/26 11:59:10;;;;;;;87.65;22.42;;;;;;;;;;5058375;28;20107;-58
2022/02/26 12:01:36;;;;;;;153.05;43.00;;;;;;;;;;5057830;28;20107;-58
2022/02/26 12:04:02;;;;;;;34.97;9.10;;;;;;;;;;5057643;28;20488;-57
2022/02/26 12:06:33;;;;;;;12.93;3.60;;;;;;;;;;5056573;28;20020;-57
2022/02/26 12:09:01;;;;;;;19.00;6.20;;;;;;;;;;5057274;28;20507;-59
2022/02/26 12:11:32;;;;;;;15.80;4.30;;;;;;;;;;5059545;28;20119;-54
2022/02/26 12:14:02;;;;;;;15.25;4.28;;;;;;;;;;5057541;28;20490;-54
2022/02/26 12:16:35;;;;;;;19.35;5.10;;;;;;;;;;5057789;28;20116;-56
2022/02/26 12:19:27;;;;;;;13.88;4.13;;;;;;;;;;5057274;28;20029;-57
2022/02/26 12:22:04;;;;;;;12.05;3.38;;;;;;;;;;5050819;28;20033;-56
2022/02/26 12:24:31;;;;;;;10.98;3.72;;;;;;;;;;5058131;28;20128;-56
2022/02/26 12:27:03;;;;;;;11.30;3.55;;;;;;;;;;5057063;28;20064;-58
2022/02/26 12:29:39;;;;;;;7.90;2.95;;;;;;;;;;5057375;28;20064;-56
2022/02/26 12:32:15;;;;;;;11.00;2.95;;;;;;;;;;5053814;28;20380;-54
2022/02/26 12:35:01;;;;;;;16.65;3.20;;;;;;;;;;5057963;28;20032;-57
2022/02/26 12:37:29;;;;;;;13.32;3.08;;;;;;;;;;5058968;28;20017;-56
2022/02/26 12:40:03;;;;;;;8.50;1.73;;;;;;;;;;5064204;28;20032;-58
2022/02/26 12:42:33;;;;;;;9.70;3.33;;;;;;;;;;5062390;28;20391;-57
2022/02/26 12:45:04;;;;;;;11.75;4.05;;;;;;;;;;5066663;28;20029;-58
2022/02/26 12:47:30;;;;;;;9.13;3.15;;;;;;;;;;5058084;28;20036;-59
2022/02/26 12:49:57;;;;;;;14.43;4.43;;;;;;;;;;5062111;28;20028;-58
2022/02/26 12:52:25;;;;;;;11.93;3.05;;;;;;;;;;5064172;28;20020;-59
2022/02/26 12:54:50;;;;;;;6.30;2.20;;;;;;;;;;5062815;28;20035;-58
2022/02/26 12:57:16;;;;;;;9.55;2.53;;;;;;;;;;5051624;28;20040;-57
2022/02/26 12:59:43;;;;;;;10.38;2.08;;;;;;;;;;5052682;28;20116;-59
2022/02/26 13:02:09;;;;;;;9.10;2.22;;;;;;;;;;5057209;28;20031;-58
2022/02/26 13:04:37;;;;;;;9.00;3.33;;;;;;;;;;5052755;28;20056;-58
2022/02/26 13:07:07;;;;;;;6.60;3.10;;;;;;;;;;5060071;28;20021;-59
2022/02/26 13:09:33;;;;;;;;;;;;;;;;;;5056768;28;20450;-59
2022/02/26 13:11:59;;;;;;;6.20;2.38;;;;;;;;;;5063330;28;19923;-59
2022/02/26 13:14:26;;;;;;;9.98;2.47;;;;;;;;;;5065180;28;20086;-59
2022/02/26 13:17:03;;;;;;;7.65;1.88;;;;;;;;;;5061121;28;20059;-55
2022/02/26 13:19:30;;;;;;;7.18;1.92;;;;;;;;;;5064042;28;20115;-57
2022/02/26 13:21:57;;;;;;;7.63;1.90;;;;;;;;;;5059407;28;20024;-59
2022/02/26 13:24:32;;;;;;;10.40;2.30;;;;;;;;;;5063989;28;20024;-57
2022/02/26 13:26:57;;;;;;;7.60;2.25;;;;;;;;;;5060535;28;20388;-57
2022/02/26 13:29:24;;;;;;;9.02;2.67;;;;;;;;;;5061970;28;20021;-58
2022/02/26 13:31:52;;;;;;;6.22;2.30;;;;;;;;;;5060456;28;20150;-58
2022/02/26 13:34:20;;;;;;;6.90;2.35;;;;;;;;;;5062537;28;20499;-59
2022/02/26 13:36:50;;;;;;;8.48;2.50;;;;;;;;;;5060569;28;20056;-59
2022/02/26 13:39:18;;;;;;;8.60;2.70;;;;;;;;;;5056972;28;20500;-57
2022/02/26 13:41:43;;;;;;;8.15;2.38;;;;;;;;;;5062175;28;20479;-59
2022/02/26 13:44:12;;;;;;;10.77;2.33;;;;;;;;;;5059334;28;20036;-58
2022/02/26 13:46:45;;;;;;;11.13;3.17;;;;;;;;;;5069001;28;20040;-59
2022/02/26 13:49:15;;;;;;;12.40;2.42;;;;;;;;;;5060056;28;20025;-58
2022/02/26 13:51:42;;;;;;;9.50;2.88;;;;;;;;;;5065742;28;20021;-58
2022/02/26 13:54:15;;;;;;;9.13;2.70;;;;;;;;;;5070610;28;20036;-58
2022/02/26 13:56:42;;;;;;;10.13;2.53;;;;;;;;;;5065315;28;20135;-57
2022/02/26 13:59:13;;;;;;;11.73;2.50;;;;;;;;;;5066646;28;20029;-59
2022/02/26 14:01:57;;;;;;;12.68;3.22;;;;;;;;;;5066517;28;20029;-58
2022/02/26 14:04:25;;;;;;;18.15;4.90;;;;;;;;;;5058246;28;20169;-58
2022/02/26 14:06:54;;;;;;;16.38;4.40;;;;;;;;;;5069051;28;20064;-58
2022/02/26 14:09:24;;;;;;;;;;;;;;;;;;5058044;28;20119;-59
2022/02/26 14:11:56;;;;;;;;;;;;;;;;;;5065378;28;19912;-59
2022/02/26 14:14:24;;;;;;;19.73;3.95;;;;;;;;;;5063574;28;20221;-60
2022/02/26 14:16:49;;;;;;;12.55;2.67;;;;;;;;;;5064436;28;20118;-58
2022/02/26 14:19:15;;;;;;;15.02;3.97;;;;;;;;;;5067407;28;20036;-58
2022/02/26 14:21:40;;;;;;;9.65;2.05;;;;;;;;;;5062472;28;20113;-59
2022/02/26 14:24:07;;;;;;;8.10;2.03;;;;;;;;;;5067556;28;20123;-59
2022/02/26 14:26:32;;;;;;;14.02;3.65;;;;;;;;;;5069504;28;20035;-59
2022/02/26 14:29:02;;;;;;;24.60;5.95;;;;;;;;;;5063092;28;20115;-59
2022/02/26 14:31:27;;;;;;;10.55;2.75;;;;;;;;;;5060988;28;20102;-58
2022/02/26 14:33:53;;;;;;;9.45;3.10;;;;;;;;;;5063064;28;20020;-58